Time;durP1;ratioP1;P1;durP2;ratioP2;P2;SDS_P1;SDS_P2;PMS_P1;PMS_P2;Temp;Humidity;BMP_temperature;BMP_pressure;BME280_temperature;BME280_humidity;BME280_pressure;Samples;Min_cycle;Max_cycle;Signal;HPM_P1;HPM_P2
2022/01/19 00:01:17;;;;;;;0.40;0.40;;;;;;;1.36;49.53;100203.53;5092024;28;20028;-73
2022/01/19 00:03:42;;;;;;;0.00;0.00;;;;;;;1.41;49.79;100216.97;5092325;28;20035;-73
2022/01/19 00:06:08;;;;;;;0.35;0.35;;;;;;;1.53;49.87;100243.69;5091822;28;20055;-71
2022/01/19 00:08:33;;;;;;;0.00;0.00;;;;;;;1.48;49.22;100256.59;5092332;28;20438;-73
2022/01/19 00:10:59;;;;;;;0.00;0.00;;;;;;;1.47;49.33;100262.88;5092226;28;20047;-72
2022/01/19 00:13:24;;;;;;;0.00;0.00;;;;;;;1.40;49.42;100247.00;5102820;28;20035;-74
2022/01/19 00:15:51;;;;;;;0.00;0.00;;;;;;;1.33;49.83;100229.47;5112513;28;20382;-72
2022/01/19 00:18:19;;;;;;;0.00;0.00;;;;;;;1.48;50.02;100275.06;5093910;28;20028;-73
2022/01/19 00:20:45;;;;;;;0.00;0.00;;;;;;;1.42;49.99;100267.91;5098137;28;20059;-73
2022/01/19 00:23:12;;;;;;;0.00;0.00;;;;;;;1.42;49.65;100275.81;5112108;28;20537;-73
2022/01/19 00:25:38;;;;;;;0.00;0.00;;;;;;;1.33;49.94;100264.56;5110883;28;20063;-72
2022/01/19 00:28:04;;;;;;;0.10;0.10;;;;;;;1.40;50.16;100297.09;5091940;28;20067;-73
2022/01/19 00:30:30;;;;;;;0.00;0.00;;;;;;;1.46;50.00;100306.06;5098533;28;20134;-73
2022/01/19 00:32:56;;;;;;;0.32;0.32;;;;;;;1.45;50.40;100301.78;5093920;28;20462;-73
2022/01/19 00:35:22;;;;;;;0.15;0.15;;;;;;;1.43;50.32;100299.34;5091557;28;20056;-75
2022/01/19 00:37:47;;;;;;;0.00;0.00;;;;;;;1.43;50.33;100298.53;5091716;28;20110;-75
2022/01/19 00:40:14;;;;;;;0.00;0.00;;;;;;;1.42;50.30;100308.25;5090009;28;20089;-72
2022/01/19 00:42:42;;;;;;;0.00;0.00;;;;;;;1.45;50.27;100309.69;5090045;28;20034;-72
2022/01/19 00:45:08;;;;;;;0.00;0.00;;;;;;;1.43;50.21;100323.06;5091952;28;20032;-71
2022/01/19 00:47:33;;;;;;;0.00;0.00;;;;;;;1.39;50.10;100318.34;5100114;28;20012;-71
2022/01/19 00:49:59;;;;;;;0.00;0.00;;;;;;;1.40;50.43;100317.34;5110014;28;20049;-72
2022/01/19 00:52:25;;;;;;;0.00;0.00;;;;;;;1.49;50.16;100334.69;5111467;28;20114;-72
2022/01/19 00:54:50;;;;;;;0.00;0.00;;;;;;;1.38;49.60;100309.63;5109067;28;20059;-73
2022/01/19 00:57:15;;;;;;;0.00;0.00;;;;;;;1.41;49.88;100305.81;5107777;28;20087;-73
2022/01/19 00:59:41;;;;;;;0.00;0.00;;;;;;;1.49;50.14;100323.31;5100476;28;20032;-73
2022/01/19 01:02:07;;;;;;;0.00;0.00;;;;;;;1.48;49.99;100322.53;5090253;28;20032;-73
2022/01/19 01:04:32;;;;;;;0.00;0.00;;;;;;;1.20;50.00;100278.38;5091106;28;20036;-73
2022/01/19 01:06:59;;;;;;;0.00;0.00;;;;;;;1.39;50.29;100310.44;5091304;28;20067;-73
2022/01/19 01:09:24;;;;;;;0.00;0.00;;;;;;;1.44;50.18;100314.16;5090853;28;20031;-72
2022/01/19 01:12:08;;;;;;;0.20;0.20;;;;;;;1.47;50.19;100320.06;5090951;28;20025;-71
2022/01/19 01:20:05;;;;;;;0.00;0.00;;;;;;;1.38;50.55;100343.06;5111223;28;20072;-74
2022/01/19 01:22:31;;;;;;;0.00;0.00;;;;;;;1.31;50.66;100328.97;5111086;28;20031;-74
2022/01/19 01:24:56;;;;;;;0.00;0.00;;;;;;;1.24;50.61;100329.72;5110239;28;20036;-74
2022/01/19 01:27:22;;;;;;;0.00;0.00;;;;;;;1.32;50.83;100338.53;5109596;28;20406;-74
2022/01/19 01:29:47;;;;;;;0.00;0.00;;;;;;;1.25;50.50;100322.63;5108345;28;20036;-73
2022/01/19 01:32:13;;;;;;;0.00;0.00;;;;;;;1.24;50.54;100328.91;5094960;28;20447;-74
2022/01/19 01:34:38;;;;;;;0.17;0.17;;;;;;;1.30;50.63;100343.19;5095265;28;20035;-72
2022/01/19 01:37:04;;;;;;;0.00;0.00;;;;;;;1.21;51.20;100330.09;5094890;28;20028;-72
2022/01/19 01:39:29;;;;;;;0.00;0.00;;;;;;;1.23;51.08;100340.44;5094549;28;20024;-72
2022/01/19 01:41:55;;;;;;;0.00;0.00;;;;;;;1.21;51.20;100348.53;5094876;28;20032;-72
2022/01/19 01:44:20;;;;;;;0.00;0.00;;;;;;;1.20;51.05;100346.09;5096054;28;20032;-73
2022/01/19 01:46:50;;;;;;;0.00;0.00;;;;;;;1.15;51.22;100335.25;5114290;28;20031;-73
2022/01/19 01:49:27;;;;;;;0.00;0.00;;;;;;;1.20;51.58;100341.63;5112165;28;20042;-73
2022/01/19 01:54:39;;;;;;;0.00;0.00;;;;;;;1.08;51.60;100343.88;5114696;28;20034;-74
2022/01/19 01:57:06;;;;;;;0.00;0.00;;;;;;;1.03;51.55;100340.97;5113659;28;20046;-75
2022/01/19 01:59:35;;;;;;;0.00;0.00;;;;;;;1.10;51.44;100347.16;5111638;28;20112;-74
2022/01/19 02:02:00;;;;;;;0.13;0.13;;;;;;;1.06;51.55;100338.00;5093576;28;20032;-75
2022/01/19 02:04:26;;;;;;;0.00;0.00;;;;;;;1.08;51.51;100337.81;5093111;28;20039;-75
2022/01/19 02:07:30;;;;;;;0.45;0.45;;;;;;;1.04;51.85;100325.97;5094359;28;20035;-75
2022/01/19 02:09:56;;;;;;;0.00;0.00;;;;;;;1.07;51.69;100325.63;5094451;28;20032;-77
2022/01/19 02:25:52;;;;;;;0.00;0.00;;;;;;;0.85;52.17;100317.63;5111220;28;20031;-75
2022/01/19 02:41:46;;;;;;;0.00;0.00;;;;;;;0.76;52.63;100332.69;5092363;28;20179;-76
2022/01/19 02:44:25;;;;;;;0.00;0.00;;;;;;;0.64;52.97;100313.88;5112766;28;20015;-74
2022/01/19 02:49:35;;;;;;;0.00;0.00;;;;;;;0.67;52.95;100325.06;5114029;28;20606;-73
2022/01/19 02:52:00;;;;;;;0.00;0.00;;;;;;;0.67;53.24;100327.69;5093517;28;20036;-74
2022/01/19 02:54:27;;;;;;;0.00;0.00;;;;;;;0.75;53.36;100341.59;5093741;28;20027;-74
2022/01/19 02:56:58;;;;;;;0.13;0.13;;;;;;;0.63;53.14;100321.97;5093695;28;20024;-74
2022/01/19 03:06:16;;;;;;;0.00;0.00;;;;;;;0.53;53.48;100302.97;5093419;28;20020;-74
2022/01/19 03:10:21;;;;;;;0.00;0.00;;;;;;;0.55;53.49;100329.94;5113339;28;20046;-72
2022/01/19 03:12:47;;;;;;;0.00;0.00;;;;;;;0.51;53.85;100320.75;5113504;28;20028;-73
2022/01/19 03:15:13;;;;;;;0.00;0.00;;;;;;;0.44;53.62;100325.91;5112060;28;20032;-72
2022/01/19 03:17:39;;;;;;;0.00;0.00;;;;;;;0.46;53.83;100326.56;5109542;28;20531;-73
2022/01/19 03:20:07;;;;;;;0.00;0.00;;;;;;;0.47;53.70;100336.88;5097064;28;20138;-73
2022/01/19 03:23:20;;;;;;;1.83;1.73;;;;;;;0.52;54.14;100344.25;5113365;28;20474;-73
2022/01/19 03:25:18;;;;;;;0.00;0.00;;;;;;;0.43;54.25;100333.00;5109032;28;20077;-71
2022/01/19 03:27:46;;;;;;;0.00;0.00;;;;;;;0.40;54.25;100329.91;5113510;28;20063;-72
2022/01/19 03:30:12;;;;;;;0.45;0.45;;;;;;;0.44;54.45;100341.69;5113435;28;20406;-73
2022/01/19 03:32:38;;;;;;;0.00;0.00;;;;;;;0.52;54.53;100349.53;5111818;28;20034;-74
2022/01/19 03:35:04;;;;;;;0.00;0.00;;;;;;;0.39;54.01;100334.34;5110292;28;20023;-73
2022/01/19 03:37:30;;;;;;;0.00;0.00;;;;;;;0.45;54.12;100336.28;5113084;28;20030;-74
2022/01/19 03:39:55;;;;;;;0.00;0.00;;;;;;;0.44;54.19;100345.16;5112889;28;20028;-73
2022/01/19 03:42:21;;;;;;;0.00;0.00;;;;;;;0.45;53.93;100348.59;5112699;28;20023;-73
2022/01/19 03:44:46;;;;;;;0.00;0.00;;;;;;;0.44;53.39;100353.06;5112547;28;20383;-74
2022/01/19 03:47:12;;;;;;;0.00;0.00;;;;;;;0.43;54.01;100358.50;5111065;28;20103;-75
2022/01/19 03:49:37;;;;;;;0.00;0.00;;;;;;;0.38;53.89;100348.50;5111517;28;20059;-75
2022/01/19 03:52:05;;;;;;;0.00;0.00;;;;;;;0.41;53.99;100360.47;5112120;28;20034;-75
2022/01/19 03:54:37;;;;;;;0.00;0.00;;;;;;;0.28;53.75;100340.84;5095291;28;20031;-74
2022/01/19 03:57:03;;;;;;;0.00;0.00;;;;;;;0.33;54.04;100348.22;5092612;28;20056;-75
2022/01/19 03:59:29;;;;;;;0.00;0.00;;;;;;;0.26;53.88;100342.03;5090863;28;20113;-74
2022/01/19 04:01:55;;;;;;;0.00;0.00;;;;;;;0.33;53.85;100366.63;5092334;28;20402;-75
2022/01/19 04:09:21;;;;;;;0.00;0.00;;;;;;;0.39;53.66;100373.00;5112518;28;20118;-75
2022/01/19 04:11:46;;;;;;;0.10;0.10;;;;;;;0.39;53.55;100379.09;5111361;28;20024;-74
2022/01/19 04:14:27;;;;;;;0.00;0.00;;;;;;;0.37;53.55;100375.81;5100743;28;20034;-73
2022/01/19 04:17:18;;;;;;;0.00;0.00;;;;;;;0.26;53.67;100355.19;5092222;28;20452;-73
2022/01/19 04:19:46;;;;;;;0.00;0.00;;;;;;;0.30;53.53;100370.41;5092089;28;20050;-70
2022/01/19 04:22:19;;;;;;;0.00;0.00;;;;;;;0.34;53.67;100368.25;5110633;28;20080;-73
2022/01/19 04:24:49;;;;;;;0.00;0.00;;;;;;;0.31;53.47;100366.00;5093053;28;20498;-72
2022/01/19 04:30:03;;;;;;;0.55;0.55;;;;;;;0.39;53.51;100375.63;5091758;28;20035;-72
2022/01/19 04:33:13;;;;;;;0.00;0.00;;;;;;;0.37;53.33;100385.53;5096683;28;20071;-72
2022/01/19 04:35:24;;;;;;;0.00;0.00;;;;;;;0.33;53.51;100392.97;5083376;28;20036;-73
2022/01/19 05:05:07;;;;;;;0.00;0.00;;;;;;;0.15;54.57;100401.94;5090756;28;20107;-74
2022/01/19 05:07:43;;;;;;;0.00;0.00;;;;;;;0.11;54.08;100405.91;5089767;28;20028;-76
2022/01/19 05:15:37;;;;;;;0.00;0.00;;;;;;;0.23;56.03;100421.28;5107213;28;20138;-72
2022/01/19 05:18:04;;;;;;;0.00;0.00;;;;;;;0.32;54.95;100436.06;5104730;28;20106;-71
2022/01/19 05:20:29;;;;;;;0.00;0.00;;;;;;;0.29;54.78;100429.31;5111046;28;20031;-70
2022/01/19 05:22:55;;;;;;;0.00;0.00;;;;;;;0.35;54.50;100442.78;5111324;28;20497;-74
2022/01/19 05:25:20;;;;;;;0.90;0.90;;;;;;;0.22;54.24;100427.53;5106251;28;20040;-75
2022/01/19 05:27:46;;;;;;;0.00;0.00;;;;;;;0.28;54.33;100432.94;5107896;28;20032;-73
2022/01/19 05:30:12;;;;;;;0.00;0.00;;;;;;;0.30;54.37;100441.47;5106899;28;20534;-73
2022/01/19 05:32:37;;;;;;;2.58;2.38;;;;;;;0.20;54.10;100417.19;5089227;28;20035;-71
2022/01/19 05:35:03;;;;;;;0.00;0.00;;;;;;;0.26;54.24;100439.38;5092134;28;20107;-71
2022/01/19 05:37:30;;;;;;;0.28;0.28;;;;;;;0.18;54.24;100427.06;5091382;28;20028;-71
2022/01/19 05:39:55;;;;;;;0.10;0.10;;;;;;;0.20;54.46;100421.66;5090679;28;20035;-70
2022/01/19 05:42:21;;;;;;;0.85;0.85;;;;;;;0.25;54.04;100435.09;5090849;28;20032;-70
2022/01/19 05:44:47;;;;;;;0.32;0.32;;;;;;;0.21;54.14;100428.53;5090601;28;20028;-70
2022/01/19 05:47:14;;;;;;;0.00;0.00;;;;;;;0.19;54.66;100441.06;5090907;28;20467;-71
2022/01/19 05:49:43;;;;;;;0.10;0.10;;;;;;;0.21;54.32;100437.25;5089308;28;20459;-81
2022/01/19 05:52:09;;;;;;;0.00;0.00;;;;;;;0.18;54.62;100426.25;5090237;28;20451;-71
2022/01/19 05:54:35;;;;;;;0.00;0.00;;;;;;;0.28;54.41;100448.72;5090613;28;20073;-71
2022/01/19 05:57:01;;;;;;;0.00;0.00;;;;;;;0.23;54.13;100442.34;5090662;28;20024;-71
2022/01/19 05:59:26;;;;;;;0.00;0.00;;;;;;;0.25;54.08;100446.44;5090438;28;20077;-72
2022/01/19 06:01:52;;;;;;;0.25;0.25;;;;;;;0.43;53.91;100463.78;5090703;28;20468;-73
2022/01/19 06:04:18;;;;;;;0.00;0.00;;;;;;;0.38;54.48;100453.78;5089489;28;20028;-72
2022/01/19 06:06:43;;;;;;;0.00;0.00;;;;;;;0.43;54.23;100456.69;5090492;28;20031;-72
2022/01/19 06:09:21;;;;;;;0.00;0.00;;;;;;;0.39;54.03;100439.63;5090501;28;20427;-73
2022/01/19 06:11:47;;;;;;;0.00;0.00;;;;;;;0.55;54.14;100451.84;5090198;28;20074;-73
2022/01/19 06:14:12;;;;;;;0.00;0.00;;;;;;;0.72;53.93;100485.94;5090868;28;20032;-73
2022/01/19 06:16:39;;;;;;;0.00;0.00;;;;;;;0.69;53.64;100463.44;5092546;28;20034;-72
2022/01/19 06:19:05;;;;;;;0.00;0.00;;;;;;;0.90;53.33;100498.84;5094056;28;20031;-72
2022/01/19 06:21:30;;;;;;;0.00;0.00;;;;;;;0.85;52.99;100475.66;5093950;28;20375;-72
2022/01/19 06:23:56;;;;;;;0.00;0.00;;;;;;;1.04;53.04;100491.97;5093857;28;20032;-71
2022/01/19 06:26:21;;;;;;;0.00;0.00;;;;;;;1.10;52.71;100483.38;5093797;28;20034;-72
2022/01/19 06:28:47;;;;;;;0.00;0.00;;;;;;;1.11;52.56;100470.00;5094010;28;20035;-73
2022/01/19 06:31:12;;;;;;;0.00;0.00;;;;;;;1.17;52.10;100471.09;5093891;28;20056;-72
2022/01/19 06:33:37;;;;;;;0.00;0.00;;;;;;;1.20;52.01;100470.75;5094084;28;20071;-73
2022/01/19 06:36:03;;;;;;;0.00;0.00;;;;;;;1.36;51.83;100482.16;5094021;28;20039;-72
2022/01/19 06:38:29;;;;;;;0.00;0.00;;;;;;;1.43;51.82;100483.06;5093708;28;20028;-73
2022/01/19 06:40:54;;;;;;;0.32;0.32;;;;;;;1.41;51.02;100477.16;5093906;28;20028;-70
2022/01/19 06:43:20;;;;;;;0.55;0.55;;;;;;;1.53;51.30;100491.53;5093822;28;20028;-71
2022/01/19 06:45:45;;;;;;;0.00;0.00;;;;;;;1.60;50.96;100502.19;5094024;28;20387;-72
2022/01/19 06:48:11;;;;;;;0.00;0.00;;;;;;;1.52;51.38;100476.69;5094112;28;20494;-72
2022/01/19 06:50:36;;;;;;;0.00;0.00;;;;;;;1.73;51.15;100491.81;5092264;28;20024;-72
2022/01/19 06:53:02;;;;;;;0.00;0.00;;;;;;;1.87;50.83;100507.81;5093886;28;20059;-72
2022/01/19 06:55:27;;;;;;;0.00;0.00;;;;;;;2.01;50.87;100514.09;5093450;28;20032;-71
2022/01/19 06:57:52;;;;;;;0.00;0.00;;;;;;;2.08;50.67;100509.72;5093605;28;20032;-71
2022/01/19 07:00:18;;;;;;;0.00;0.00;;;;;;;2.22;50.20;100514.16;5093324;28;20036;-71
2022/01/19 07:02:44;;;;;;;0.00;0.00;;;;;;;2.29;49.90;100502.84;5093259;28;20400;-71
2022/01/19 07:05:10;;;;;;;0.00;0.00;;;;;;;2.38;49.33;100507.84;5093464;28;20031;-71
2022/01/19 07:07:36;;;;;;;0.00;0.00;;;;;;;2.51;49.37;100507.16;5093451;28;20458;-71
2022/01/19 07:10:02;;;;;;;0.00;0.00;;;;;;;2.47;48.05;100491.91;5093316;28;20024;-71
2022/01/19 07:12:29;;;;;;;0.00;0.00;;;;;;;2.51;48.83;100483.38;5091866;28;20472;-71
2022/01/19 07:14:54;;;;;;;0.00;0.00;;;;;;;2.59;47.99;100506.25;5093301;28;20063;-71
2022/01/19 07:17:20;;;;;;;0.00;0.00;;;;;;;2.60;48.48;100499.97;5093032;28;20075;-71
2022/01/19 07:19:47;;;;;;;0.00;0.00;;;;;;;2.62;49.05;100497.13;5093212;28;20028;-71
2022/01/19 07:22:15;;;;;;;0.00;0.00;;;;;;;2.55;48.54;100489.13;5092965;28;20110;-72
2022/01/19 07:24:41;;;;;;;0.03;0.03;;;;;;;2.56;48.06;100485.47;5092970;28;20082;-71
2022/01/19 07:27:06;;;;;;;0.47;0.47;;;;;;;2.62;47.84;100500.56;5092019;28;20465;-71
2022/01/19 07:29:31;;;;;;;0.00;0.00;;;;;;;2.69;47.83;100512.03;5092559;28;20028;-71
2022/01/19 07:31:58;;;;;;;0.00;0.00;;;;;;;2.61;47.33;100503.41;5112995;28;20102;-71
2022/01/19 07:34:25;;;;;;;0.00;0.00;;;;;;;2.71;47.90;100511.81;5113304;28;20507;-71
2022/01/19 07:36:51;;;;;;;0.22;0.22;;;;;;;2.70;47.45;100502.28;5113084;28;20077;-71
2022/01/19 07:39:16;;;;;;;0.00;0.00;;;;;;;2.81;47.30;100503.63;5111937;28;20444;-72
2022/01/19 07:41:41;;;;;;;0.00;0.00;;;;;;;2.94;47.83;100509.03;5111578;28;20052;-72
2022/01/19 07:44:07;;;;;;;0.00;0.00;;;;;;;2.95;46.81;100501.91;5113181;28;20023;-71
2022/01/19 07:46:32;;;;;;;0.00;0.00;;;;;;;3.05;46.94;100510.31;5112915;28;20024;-72
2022/01/19 07:48:58;;;;;;;0.10;0.10;;;;;;;3.01;47.36;100501.16;5111836;28;20027;-71
2022/01/19 07:51:23;;;;;;;0.00;0.00;;;;;;;3.04;47.32;100509.53;5111594;28;20023;-71
2022/01/19 07:53:49;;;;;;;0.00;0.00;;;;;;;3.14;47.75;100505.75;5112886;28;20135;-72
2022/01/19 07:56:14;;;;;;;0.10;0.10;;;;;;;3.24;48.17;100519.44;5113092;28;20031;-71
2022/01/19 07:58:40;;;;;;;0.00;0.00;;;;;;;3.25;47.50;100513.16;5112546;28;20032;-71
2022/01/19 08:01:05;;;;;;;0.10;0.10;;;;;;;3.32;47.75;100515.81;5112301;28;20114;-71
2022/01/19 08:03:31;;;;;;;0.00;0.00;;;;;;;3.34;47.31;100508.53;5112774;28;20039;-71
2022/01/19 08:05:56;;;;;;;0.00;0.00;;;;;;;3.47;46.81;100505.19;5112801;28;20482;-72
2022/01/19 08:08:21;;;;;;;0.00;0.00;;;;;;;3.57;46.36;100520.72;5111354;28;20035;-72
2022/01/19 08:10:48;;;;;;;0.00;0.00;;;;;;;3.67;46.00;100518.53;5112403;28;20107;-71
2022/01/19 08:13:15;;;;;;;5.72;1.95;;;;;;;3.70;45.21;100512.84;5112549;28;20176;-71
2022/01/19 08:15:40;;;;;;;0.00;0.00;;;;;;;3.61;45.88;100501.59;5112349;28;20024;-71
2022/01/19 08:18:06;;;;;;;0.00;0.00;;;;;;;3.64;45.33;100516.28;5112493;28;20034;-71
2022/01/19 08:20:31;;;;;;;0.32;0.32;;;;;;;3.59;46.30;100516.84;5111839;28;20034;-71
2022/01/19 08:22:57;;;;;;;0.00;0.00;;;;;;;3.56;45.87;100513.78;5111060;28;20626;-71
2022/01/19 08:25:22;;;;;;;0.00;0.00;;;;;;;3.64;46.36;100532.16;5112360;28;20024;-71
2022/01/19 08:27:48;;;;;;;0.00;0.00;;;;;;;3.68;46.29;100533.41;5112066;28;20427;-71
2022/01/19 08:30:14;;;;;;;0.00;0.00;;;;;;;3.74;45.50;100531.81;5112252;28;20418;-71
2022/01/19 08:32:39;;;;;;;0.00;0.00;;;;;;;3.75;46.00;100528.97;5111985;28;20063;-71
2022/01/19 08:35:07;;;;;;;0.00;0.00;;;;;;;3.82;45.76;100536.94;5111784;28;20048;-71
2022/01/19 08:37:33;;;;;;;0.00;0.00;;;;;;;3.86;45.49;100540.84;5111580;28;20110;-71
2022/01/19 08:40:00;;;;;;;0.00;0.00;;;;;;;3.76;45.75;100522.66;5110594;28;20384;-71
2022/01/19 08:42:26;;;;;;;0.00;0.00;;;;;;;3.85;46.24;100521.47;5111888;28;20031;-71
2022/01/19 08:44:53;;;;;;;0.15;0.15;;;;;;;3.64;46.04;100481.88;5111802;28;20400;-71
2022/01/19 08:47:19;;;;;;;0.00;0.00;;;;;;;3.81;45.96;100508.84;5110376;28;20035;-71
2022/01/19 08:49:44;;;;;;;0.00;0.00;;;;;;;3.85;45.11;100516.19;5111372;28;20035;-71
2022/01/19 08:52:09;;;;;;;0.00;0.00;;;;;;;3.97;45.53;100531.53;5111356;28;20422;-71
2022/01/19 08:54:35;;;;;;;0.00;0.00;;;;;;;4.00;46.08;100529.31;5111680;28;20475;-71
2022/01/19 08:57:01;;;;;;;0.00;0.00;;;;;;;3.99;46.00;100511.78;5111773;28;20023;-71
2022/01/19 08:59:27;;;;;;;0.80;0.80;;;;;;;4.10;45.81;100522.84;5110461;28;20459;-71
2022/01/19 09:01:53;;;;;;;0.00;0.00;;;;;;;4.09;45.45;100505.31;5111557;28;20036;-71
2022/01/19 09:04:18;;;;;;;0.10;0.10;;;;;;;4.12;45.52;100512.88;5110462;28;20042;-71
2022/01/19 09:06:44;;;;;;;0.25;0.25;;;;;;;4.12;45.09;100507.56;5111437;28;20493;-72
2022/01/19 09:09:10;;;;;;;0.00;0.00;;;;;;;4.19;45.02;100507.59;5111599;28;20466;-70
2022/01/19 09:11:36;;;;;;;0.00;0.00;;;;;;;4.19;44.03;100503.13;5111702;28;20463;-71
2022/01/19 09:14:03;;;;;;;0.00;0.00;;;;;;;4.27;44.78;100502.13;5111523;28;20514;-70
2022/01/19 09:16:29;;;;;;;0.00;0.00;;;;;;;4.25;44.54;100494.38;5109944;28;20096;-70
2022/01/19 09:18:55;;;;;;;0.00;0.00;;;;;;;4.38;44.10;100498.94;5110042;28;20023;-71
2022/01/19 09:21:21;;;;;;;0.10;0.10;;;;;;;4.46;44.53;100503.22;5111172;28;20496;-71
2022/01/19 09:23:46;;;;;;;0.20;0.20;;;;;;;4.38;44.31;100479.56;5109965;28;20453;-71
2022/01/19 09:26:12;;;;;;;0.25;0.25;;;;;;;4.49;44.32;100486.91;5111417;28;20039;-71
2022/01/19 09:28:37;;;;;;;0.00;0.00;;;;;;;4.47;43.79;100470.41;5111274;28;20027;-71
2022/01/19 09:31:10;;;;;;;0.00;0.00;;;;;;;4.64;42.82;100474.31;5110126;28;20031;-71
2022/01/19 09:33:36;;;;;;;0.00;0.00;;;;;;;4.59;43.64;100458.22;5111200;28;20019;-70
2022/01/19 09:38:33;;;;;;;0.00;0.00;;;;;;;4.61;42.47;100463.28;5111395;28;20035;-70
2022/01/19 09:40:59;;;;;;;0.00;0.00;;;;;;;4.67;41.91;100459.84;5109882;28;20031;-71
2022/01/19 09:43:25;;;;;;;0.35;0.35;;;;;;;4.72;41.23;100475.94;5111301;28;20031;-70
2022/01/19 09:46:00;;;;;;;0.00;0.00;;;;;;;4.68;42.27;100476.56;5111067;28;20031;-70
2022/01/19 09:48:27;;;;;;;0.00;0.00;;;;;;;4.73;42.48;100466.19;5111275;28;20023;-70
2022/01/19 09:50:54;;;;;;;0.00;0.00;;;;;;;4.72;42.35;100460.03;5111398;28;20586;-70
2022/01/19 09:53:20;;;;;;;0.25;0.25;;;;;;;4.75;41.67;100464.16;5115391;28;20517;-71
2022/01/19 09:55:47;;;;;;;0.00;0.00;;;;;;;4.77;41.19;100452.31;5113713;28;20030;-71
2022/01/19 09:58:13;;;;;;;0.00;0.00;;;;;;;4.73;42.76;100439.69;5115106;28;20051;-71
2022/01/19 10:00:39;;;;;;;0.00;0.00;;;;;;;4.77;42.60;100438.25;5113497;28;20050;-70
2022/01/19 10:03:32;;;;;;;0.57;0.57;;;;;;;4.91;42.11;100447.84;5115448;28;20032;-72
2022/01/19 10:06:07;;;;;;;0.00;0.00;;;;;;;4.99;42.73;100453.97;5112628;28;20043;-71
2022/01/19 10:08:38;;;;;;;0.00;0.00;;;;;;;5.00;42.75;100453.75;5115081;28;20020;-71
2022/01/19 10:11:18;;;;;;;0.00;0.00;;;;;;;4.94;41.37;100431.53;5114964;28;20036;-71
2022/01/19 10:17:04;;;;;;;0.30;0.30;;;;;;;5.09;41.39;100422.53;5114399;28;20034;-70
2022/01/19 10:19:50;;;;;;;1.30;1.20;;;;;;;5.14;41.46;100412.13;5113467;28;20027;-70
2022/01/19 10:22:25;;;;;;;0.00;0.00;;;;;;;5.15;41.43;100412.94;5114812;28;20024;-71
2022/01/19 10:24:50;;;;;;;0.00;0.00;;;;;;;5.18;41.05;100428.47;5114437;28;20027;-70
2022/01/19 10:27:37;;;;;;;0.08;0.08;;;;;;;5.14;40.94;100420.09;5113338;28;20031;-70
2022/01/19 10:30:02;;;;;;;0.05;0.05;;;;;;;5.20;40.68;100424.56;5114426;28;20024;-71
2022/01/19 10:32:30;;;;;;;0.35;0.35;;;;;;;5.21;41.38;100425.38;5114238;28;20035;-70
2022/01/19 10:34:55;;;;;;;0.85;0.52;;;;;;;5.20;41.12;100408.66;5114271;28;20562;-70
2022/01/19 10:37:26;;;;;;;0.00;0.00;;;;;;;5.18;40.88;100389.47;5114183;28;20051;-71
2022/01/19 10:39:54;;;;;;;0.00;0.00;;;;;;;5.29;41.13;100388.03;5113875;28;20024;-71
2022/01/19 10:42:22;;;;;;;0.10;0.10;;;;;;;5.21;40.93;100380.28;5113073;28;20460;-71
2022/01/19 10:44:59;;;;;;;0.00;0.00;;;;;;;5.33;40.33;100399.84;5114140;28;20155;-71
2022/01/19 10:47:37;;;;;;;0.10;0.10;;;;;;;5.20;39.68;100376.84;5114035;28;20066;-70
2022/01/19 10:50:03;;;;;;;0.00;0.00;;;;;;;5.31;40.62;100391.31;5114210;28;20081;-70
2022/01/19 10:52:34;;;;;;;0.00;0.00;;;;;;;5.33;39.92;100380.47;5114049;28;20512;-70
2022/01/19 10:55:02;;;;;;;0.00;0.00;;;;;;;5.22;39.55;100347.44;5113917;28;20027;-70
2022/01/19 10:57:29;;;;;;;0.00;0.00;;;;;;;5.47;39.43;100376.75;5112782;28;20036;-70
2022/01/19 11:00:28;;;;;;;0.00;0.00;;;;;;;5.45;39.37;100378.81;5113402;28;20027;-71
2022/01/19 11:02:57;;;;;;;0.00;0.00;;;;;;;5.39;39.61;100356.56;5112385;28;20544;-71
2022/01/19 11:05:43;;;;;;;0.00;0.00;;;;;;;5.51;40.01;100379.81;5113960;28;20421;-70
2022/01/19 11:08:09;;;;;;;0.00;0.00;;;;;;;5.42;39.60;100369.44;5113480;28;20225;-71
2022/01/19 11:10:35;;;;;;;0.73;0.73;;;;;;;5.38;39.54;100362.09;5112464;28;20034;-72
2022/01/19 11:13:00;;;;;;;0.00;0.00;;;;;;;5.35;39.66;100344.75;5112150;28;20398;-70
2022/01/19 11:15:26;;;;;;;0.00;0.00;;;;;;;5.44;39.55;100340.84;5113389;28;20032;-71
2022/01/19 11:17:51;;;;;;;0.20;0.20;;;;;;;5.45;39.16;100345.13;5113269;28;20031;-71
2022/01/19 11:20:20;;;;;;;0.00;0.00;;;;;;;5.31;39.78;100313.53;5111859;28;20031;-71
2022/01/19 11:22:57;;;;;;;0.00;0.00;;;;;;;5.53;40.53;100332.63;5113390;28;20024;-72
2022/01/19 11:25:38;;;;;;;1.60;1.50;;;;;;;5.31;40.32;100289.66;5113368;28;20027;-71
2022/01/19 11:28:04;;;;;;;0.25;0.25;;;;;;;5.56;40.03;100327.72;5111662;28;20304;-70
2022/01/19 11:30:32;;;;;;;0.32;0.32;;;;;;;5.64;39.95;100323.19;5112974;28;20048;-70
2022/01/19 11:33:26;;;;;;;0.00;0.00;;;;;;;5.69;39.98;100310.09;5113050;28;20030;-71
2022/01/19 11:36:04;;;;;;;0.00;0.00;;;;;;;5.67;39.90;100298.91;5113231;28;20055;-71
2022/01/19 11:38:43;;;;;;;0.00;0.00;;;;;;;5.81;39.52;100300.47;5113296;28;20042;-71
2022/01/19 11:41:08;;;;;;;0.00;0.00;;;;;;;5.83;39.40;100301.03;5113177;28;20089;-72
2022/01/19 11:43:39;;;;;;;1.02;1.00;;;;;;;5.85;40.34;100292.88;5113109;28;20024;-72
2022/01/19 11:46:05;;;;;;;0.43;0.43;;;;;;;5.92;39.40;100301.63;5112618;28;20080;-73
2022/01/19 11:48:35;;;;;;;0.00;0.00;;;;;;;5.95;39.85;100305.69;5112830;28;20023;-71
2022/01/19 11:51:28;;;;;;;0.00;0.00;;;;;;;6.03;39.69;100300.13;5112723;28;20035;-72
2022/01/19 11:54:03;;;;;;;0.15;0.15;;;;;;;6.02;38.84;100294.03;5110940;28;20054;-72
2022/01/19 11:56:28;;;;;;;0.00;0.00;;;;;;;6.05;38.84;100284.81;5112812;28;20041;-72
2022/01/19 11:59:04;;;;;;;0.00;0.00;;;;;;;6.12;38.96;100279.47;5112353;28;20024;-72
2022/01/19 12:01:30;;;;;;;0.00;0.00;;;;;;;6.04;39.27;100260.09;5111423;28;20028;-72
2022/01/19 12:04:19;;;;;;;0.00;0.00;;;;;;;6.14;39.36;100277.38;5112470;28;20395;-72
2022/01/19 12:06:46;;;;;;;0.00;0.00;;;;;;;6.07;39.05;100251.69;5111113;28;20027;-72
2022/01/19 12:09:13;;;;;;;0.00;0.00;;;;;;;6.07;39.04;100258.84;5112406;28;20069;-72
2022/01/19 12:11:52;;;;;;;0.00;0.00;;;;;;;6.20;38.20;100272.03;5112640;28;20031;-72
2022/01/19 12:17:09;;;;;;;0.00;0.00;;;;;;;6.21;38.48;100255.06;5111575;28;20024;-71
2022/01/19 12:19:41;;;;;;;0.63;0.63;;;;;;;6.18;38.13;100228.94;5111730;28;20103;-72
2022/01/19 12:22:22;;;;;;;0.00;0.00;;;;;;;6.27;38.97;100242.75;5111477;28;20084;-72
2022/01/19 12:24:58;;;;;;;0.00;0.00;;;;;;;6.20;38.43;100234.84;5111565;28;20023;-72
2022/01/19 12:27:29;;;;;;;0.00;0.00;;;;;;;6.19;38.11;100222.59;5110982;28;20027;-72
2022/01/19 12:30:04;;;;;;;0.00;0.00;;;;;;;6.30;38.54;100233.53;5111786;28;20036;-71
2022/01/19 12:32:36;;;;;;;0.00;0.00;;;;;;;6.34;38.33;100234.72;5110366;28;20474;-72
2022/01/19 12:35:05;;;;;;;0.00;0.00;;;;;;;6.38;37.40;100235.91;5109670;28;20035;-72
2022/01/19 12:37:34;;;;;;;0.00;0.00;;;;;;;6.42;36.97;100237.13;5111655;28;20037;-72
2022/01/19 12:40:01;;;;;;;0.47;0.47;;;;;;;6.45;37.04;100234.00;5110096;28;20460;-72
2022/01/19 12:42:51;;;;;;;0.10;0.10;;;;;;;6.40;36.69;100217.91;5111320;28;20563;-72
2022/01/19 12:45:33;;;;;;;0.35;0.35;;;;;;;6.46;36.50;100211.72;5111704;28;20495;-72
2022/01/19 12:48:01;;;;;;;0.00;0.00;;;;;;;6.48;36.76;100217.63;5111385;28;20057;-72
2022/01/19 12:50:27;;;;;;;0.00;0.00;;;;;;;6.48;35.72;100217.63;5111559;28;20024;-70
2022/01/19 12:53:15;;;;;;;0.00;0.00;;;;;;;6.45;35.33;100206.63;5109662;28;20096;-71
2022/01/19 12:55:42;;;;;;;;;;;;;;;6.44;36.01;100210.31;5111798;28;20066;-71
2022/01/19 12:58:22;;;;;;;0.25;0.25;;;;;;;6.31;36.16;100198.78;5111461;28;20451;-71
2022/01/19 13:00:51;;;;;;;0.00;0.00;;;;;;;6.40;36.72;100213.41;5111467;28;20455;-71
2022/01/19 13:03:23;;;;;;;0.00;0.00;;;;;;;6.47;36.52;100210.69;5111754;28;20028;-71
2022/01/19 13:05:52;;;;;;;0.00;0.00;;;;;;;6.47;36.54;100205.38;5111481;28;20027;-71
2022/01/19 13:08:33;;;;;;;0.00;0.00;;;;;;;6.40;36.78;100194.78;5112003;28;20081;-71
2022/01/19 13:11:10;;;;;;;0.00;0.00;;;;;;;6.50;37.16;100201.47;5111414;28;20114;-71
2022/01/19 13:14:05;;;;;;;0.00;0.00;;;;;;;6.56;35.80;100206.69;5111373;28;20027;-71
2022/01/19 13:16:34;;;;;;;0.00;0.00;;;;;;;6.56;36.06;100200.56;5110310;28;20474;-71